sensor_id;sensor_type;location;lat;lon;timestamp;P1;durP1;ratioP1;P2;durP2;ratioP2
72974;SDS011;61166;54.228;37.632;2023-06-22T00:00:02;365.83;;;147.18;;
72974;SDS011;61166;54.228;37.632;2023-06-22T00:02:29;400.63;;;155.90;;
72974;SDS011;61166;54.228;37.632;2023-06-22T00:04:55;443.00;;;170.82;;
72974;SDS011;61166;54.228;37.632;2023-06-22T00:07:22;453.52;;;173.05;;
72974;SDS011;61166;54.228;37.632;2023-06-22T00:09:48;400.45;;;156.25;;
72974;SDS011;61166;54.228;37.632;2023-06-22T00:12:14;414.70;;;162.40;;
72974;SDS011;61166;54.228;37.632;2023-06-22T00:14:41;389.33;;;156.98;;
72974;SDS011;61166;54.228;37.632;2023-06-22T00:17:07;464.88;;;185.45;;
72974;SDS011;61166;54.228;37.632;2023-06-22T00:19:34;380.27;;;153.57;;
72974;SDS011;61166;54.228;37.632;2023-06-22T00:22:00;477.95;;;203.13;;
72974;SDS011;61166;54.228;37.632;2023-06-22T00:24:26;459.52;;;191.20;;
72974;SDS011;61166;54.228;37.632;2023-06-22T00:26:53;364.75;;;151.40;;
72974;SDS011;61166;54.228;37.632;2023-06-22T00:29:19;243.18;;;112.13;;
72974;SDS011;61166;54.228;37.632;2023-06-22T00:31:47;143.43;;;76.57;;
72974;SDS011;61166;54.228;37.632;2023-06-22T00:34:14;173.40;;;80.10;;
72974;SDS011;61166;54.228;37.632;2023-06-22T00:36:40;78.28;;;45.00;;
72974;SDS011;61166;54.228;37.632;2023-06-22T00:39:07;52.78;;;37.50;;
72974;SDS011;61166;54.228;37.632;2023-06-22T00:41:33;19.90;;;10.60;;
72974;SDS011;61166;54.228;37.632;2023-06-22T00:44:00;17.52;;;9.27;;
72974;SDS011;61166;54.228;37.632;2023-06-22T00:46:26;15.30;;;7.40;;
72974;SDS011;61166;54.228;37.632;2023-06-22T00:48:52;15.43;;;6.32;;
72974;SDS011;61166;54.228;37.632;2023-06-22T00:51:19;13.52;;;6.50;;
72974;SDS011;61166;54.228;37.632;2023-06-22T00:53:45;13.00;;;6.68;;
72974;SDS011;61166;54.228;37.632;2023-06-22T00:56:12;16.35;;;6.80;;
72974;SDS011;61166;54.228;37.632;2023-06-22T00:58:38;12.77;;;6.10;;
72974;SDS011;61166;54.228;37.632;2023-06-22T01:01:05;15.90;;;7.25;;
72974;SDS011;61166;54.228;37.632;2023-06-22T01:03:31;14.00;;;7.43;;
72974;SDS011;61166;54.228;37.632;2023-06-22T01:06:01;16.08;;;7.85;;
72974;SDS011;61166;54.228;37.632;2023-06-22T01:08:36;18.35;;;7.63;;
72974;SDS011;61166;54.228;37.632;2023-06-22T01:11:09;19.60;;;7.20;;
72974;SDS011;61166;54.228;37.632;2023-06-22T01:16:29;13.65;;;6.85;;
72974;SDS011;61166;54.228;37.632;2023-06-22T01:18:57;15.02;;;7.10;;
72974;SDS011;61166;54.228;37.632;2023-06-22T01:21:24;12.73;;;6.13;;
72974;SDS011;61166;54.228;37.632;2023-06-22T01:29:06;12.95;;;6.72;;
72974;SDS011;61166;54.228;37.632;2023-06-22T01:31:34;14.40;;;6.40;;
72974;SDS011;61166;54.228;37.632;2023-06-22T01:34:03;13.63;;;6.78;;
72974;SDS011;61166;54.228;37.632;2023-06-22T01:36:30;12.13;;;7.00;;
72974;SDS011;61166;54.228;37.632;2023-06-22T01:38:57;17.15;;;8.30;;
72974;SDS011;61166;54.228;37.632;2023-06-22T01:41:25;16.88;;;8.25;;
72974;SDS011;61166;54.228;37.632;2023-06-22T01:43:52;16.65;;;7.55;;
72974;SDS011;61166;54.228;37.632;2023-06-22T01:46:19;15.93;;;7.38;;
72974;SDS011;61166;54.228;37.632;2023-06-22T01:48:47;15.85;;;8.52;;
72974;SDS011;61166;54.228;37.632;2023-06-22T01:51:13;15.47;;;8.93;;
72974;SDS011;61166;54.228;37.632;2023-06-22T01:53:40;13.13;;;8.30;;
72974;SDS011;61166;54.228;37.632;2023-06-22T01:56:06;17.88;;;11.57;;
72974;SDS011;61166;54.228;37.632;2023-06-22T01:58:33;14.70;;;8.00;;
72974;SDS011;61166;54.228;37.632;2023-06-22T02:01:12;16.45;;;9.10;;
72974;SDS011;61166;54.228;37.632;2023-06-22T02:03:51;15.00;;;8.37;;
72974;SDS011;61166;54.228;37.632;2023-06-22T02:06:27;12.77;;;8.02;;
72974;SDS011;61166;54.228;37.632;2023-06-22T02:08:57;15.77;;;8.27;;
72974;SDS011;61166;54.228;37.632;2023-06-22T02:11:26;15.90;;;7.88;;
72974;SDS011;61166;54.228;37.632;2023-06-22T02:13:52;11.82;;;7.32;;
72974;SDS011;61166;54.228;37.632;2023-06-22T02:16:19;15.30;;;7.77;;
72974;SDS011;61166;54.228;37.632;2023-06-22T02:18:46;14.50;;;7.20;;
72974;SDS011;61166;54.228;37.632;2023-06-22T02:21:13;12.23;;;7.72;;
72974;SDS011;61166;54.228;37.632;2023-06-22T02:23:40;11.52;;;7.18;;
72974;SDS011;61166;54.228;37.632;2023-06-22T02:26:06;12.52;;;7.57;;
72974;SDS011;61166;54.228;37.632;2023-06-22T02:28:32;9.73;;;7.07;;
72974;SDS011;61166;54.228;37.632;2023-06-22T02:30:59;11.60;;;7.63;;
72974;SDS011;61166;54.228;37.632;2023-06-22T02:33:25;12.60;;;7.38;;
72974;SDS011;61166;54.228;37.632;2023-06-22T02:35:52;13.13;;;8.25;;
72974;SDS011;61166;54.228;37.632;2023-06-22T02:38:18;15.45;;;7.90;;
72974;SDS011;61166;54.228;37.632;2023-06-22T02:40:45;10.90;;;8.40;;
72974;SDS011;61166;54.228;37.632;2023-06-22T02:43:11;11.82;;;8.52;;
72974;SDS011;61166;54.228;37.632;2023-06-22T02:45:38;12.93;;;9.07;;
72974;SDS011;61166;54.228;37.632;2023-06-22T02:48:04;12.82;;;8.57;;
72974;SDS011;61166;54.228;37.632;2023-06-22T02:50:31;12.35;;;8.68;;
72974;SDS011;61166;54.228;37.632;2023-06-22T02:52:57;15.27;;;8.53;;
72974;SDS011;61166;54.228;37.632;2023-06-22T02:55:24;13.93;;;7.82;;
72974;SDS011;61166;54.228;37.632;2023-06-22T02:57:50;16.63;;;9.07;;
72974;SDS011;61166;54.228;37.632;2023-06-22T03:00:17;11.75;;;7.70;;
72974;SDS011;61166;54.228;37.632;2023-06-22T03:02:44;13.43;;;9.90;;
72974;SDS011;61166;54.228;37.632;2023-06-22T03:05:11;11.90;;;8.83;;
72974;SDS011;61166;54.228;37.632;2023-06-22T03:07:37;13.90;;;9.07;;
72974;SDS011;61166;54.228;37.632;2023-06-22T03:10:04;14.27;;;9.07;;
72974;SDS011;61166;54.228;37.632;2023-06-22T03:12:30;14.35;;;8.63;;
72974;SDS011;61166;54.228;37.632;2023-06-22T03:14:57;10.90;;;8.88;;
72974;SDS011;61166;54.228;37.632;2023-06-22T03:17:24;12.57;;;10.80;;
72974;SDS011;61166;54.228;37.632;2023-06-22T03:19:50;13.23;;;9.75;;
72974;SDS011;61166;54.228;37.632;2023-06-22T03:22:17;13.32;;;9.60;;
72974;SDS011;61166;54.228;37.632;2023-06-22T03:24:43;16.25;;;10.48;;
72974;SDS011;61166;54.228;37.632;2023-06-22T03:27:10;14.43;;;11.43;;
72974;SDS011;61166;54.228;37.632;2023-06-22T03:29:36;18.70;;;10.20;;
72974;SDS011;61166;54.228;37.632;2023-06-22T03:32:03;16.77;;;10.80;;
72974;SDS011;61166;54.228;37.632;2023-06-22T03:34:29;13.00;;;11.60;;
72974;SDS011;61166;54.228;37.632;2023-06-22T03:36:56;15.32;;;11.82;;
72974;SDS011;61166;54.228;37.632;2023-06-22T03:39:22;15.93;;;12.77;;
72974;SDS011;61166;54.228;37.632;2023-06-22T03:41:49;15.37;;;11.77;;
72974;SDS011;61166;54.228;37.632;2023-06-22T03:44:15;18.55;;;12.68;;
72974;SDS011;61166;54.228;37.632;2023-06-22T03:46:41;15.00;;;12.65;;
72974;SDS011;61166;54.228;37.632;2023-06-22T03:49:08;16.02;;;11.20;;
72974;SDS011;61166;54.228;37.632;2023-06-22T03:51:34;14.95;;;13.25;;
72974;SDS011;61166;54.228;37.632;2023-06-22T03:54:01;16.23;;;13.10;;
72974;SDS011;61166;54.228;37.632;2023-06-22T03:56:27;15.35;;;13.75;;
72974;SDS011;61166;54.228;37.632;2023-06-22T03:58:54;15.85;;;14.23;;
72974;SDS011;61166;54.228;37.632;2023-06-22T04:01:20;18.88;;;15.30;;
72974;SDS011;61166;54.228;37.632;2023-06-22T04:03:46;17.65;;;14.43;;
72974;SDS011;61166;54.228;37.632;2023-06-22T04:06:13;17.70;;;13.77;;
72974;SDS011;61166;54.228;37.632;2023-06-22T04:08:39;22.67;;;15.75;;
72974;SDS011;61166;54.228;37.632;2023-06-22T04:11:06;22.85;;;16.38;;
72974;SDS011;61166;54.228;37.632;2023-06-22T04:13:32;21.73;;;14.55;;
72974;SDS011;61166;54.228;37.632;2023-06-22T04:15:59;31.70;;;17.23;;
72974;SDS011;61166;54.228;37.632;2023-06-22T04:18:25;25.33;;;16.13;;
72974;SDS011;61166;54.228;37.632;2023-06-22T04:20:51;18.33;;;14.95;;
72974;SDS011;61166;54.228;37.632;2023-06-22T04:23:18;25.85;;;16.95;;
72974;SDS011;61166;54.228;37.632;2023-06-22T04:25:44;21.98;;;15.55;;
72974;SDS011;61166;54.228;37.632;2023-06-22T04:28:11;22.88;;;15.60;;
72974;SDS011;61166;54.228;37.632;2023-06-22T04:30:37;19.80;;;14.27;;
72974;SDS011;61166;54.228;37.632;2023-06-22T04:33:04;19.70;;;17.63;;
72974;SDS011;61166;54.228;37.632;2023-06-22T04:35:30;19.38;;;14.82;;
72974;SDS011;61166;54.228;37.632;2023-06-22T04:37:57;18.00;;;15.38;;
72974;SDS011;61166;54.228;37.632;2023-06-22T04:40:24;23.00;;;14.65;;
72974;SDS011;61166;54.228;37.632;2023-06-22T04:42:50;20.80;;;15.10;;
72974;SDS011;61166;54.228;37.632;2023-06-22T04:45:17;17.33;;;15.55;;
72974;SDS011;61166;54.228;37.632;2023-06-22T04:47:43;18.90;;;14.90;;
72974;SDS011;61166;54.228;37.632;2023-06-22T04:50:10;16.98;;;13.88;;
72974;SDS011;61166;54.228;37.632;2023-06-22T04:52:36;22.02;;;16.98;;
72974;SDS011;61166;54.228;37.632;2023-06-22T04:55:03;20.63;;;14.83;;
72974;SDS011;61166;54.228;37.632;2023-06-22T04:57:29;24.33;;;15.73;;
72974;SDS011;61166;54.228;37.632;2023-06-22T04:59:56;19.40;;;15.75;;
72974;SDS011;61166;54.228;37.632;2023-06-22T05:02:22;16.27;;;14.57;;
72974;SDS011;61166;54.228;37.632;2023-06-22T05:04:49;19.98;;;17.98;;
72974;SDS011;61166;54.228;37.632;2023-06-22T05:07:15;19.07;;;15.13;;
72974;SDS011;61166;54.228;37.632;2023-06-22T05:09:42;20.08;;;17.10;;
72974;SDS011;61166;54.228;37.632;2023-06-22T05:12:08;21.15;;;18.00;;
72974;SDS011;61166;54.228;37.632;2023-06-22T05:14:36;17.60;;;15.32;;
72974;SDS011;61166;54.228;37.632;2023-06-22T05:17:03;18.88;;;16.58;;
72974;SDS011;61166;54.228;37.632;2023-06-22T05:19:29;17.27;;;15.47;;
72974;SDS011;61166;54.228;37.632;2023-06-22T05:21:56;17.15;;;15.45;;
72974;SDS011;61166;54.228;37.632;2023-06-22T05:24:22;18.13;;;16.27;;
72974;SDS011;61166;54.228;37.632;2023-06-22T05:26:49;18.95;;;16.13;;
72974;SDS011;61166;54.228;37.632;2023-06-22T05:29:15;17.02;;;15.35;;
72974;SDS011;61166;54.228;37.632;2023-06-22T05:31:42;16.90;;;15.13;;
72974;SDS011;61166;54.228;37.632;2023-06-22T05:34:08;15.02;;;12.88;;
72974;SDS011;61166;54.228;37.632;2023-06-22T05:36:35;16.33;;;14.85;;
72974;SDS011;61166;54.228;37.632;2023-06-22T05:39:10;15.98;;;14.35;;
72974;SDS011;61166;54.228;37.632;2023-06-22T05:41:37;16.33;;;14.63;;
72974;SDS011;61166;54.228;37.632;2023-06-22T05:44:03;17.70;;;15.20;;
72974;SDS011;61166;54.228;37.632;2023-06-22T05:46:29;21.15;;;15.60;;
72974;SDS011;61166;54.228;37.632;2023-06-22T05:48:56;19.30;;;14.38;;
72974;SDS011;61166;54.228;37.632;2023-06-22T05:51:22;18.45;;;14.00;;
72974;SDS011;61166;54.228;37.632;2023-06-22T05:53:49;17.05;;;14.82;;
72974;SDS011;61166;54.228;37.632;2023-06-22T05:56:15;19.67;;;16.13;;
72974;SDS011;61166;54.228;37.632;2023-06-22T05:58:42;17.85;;;15.55;;
72974;SDS011;61166;54.228;37.632;2023-06-22T06:01:08;21.27;;;16.00;;
72974;SDS011;61166;54.228;37.632;2023-06-22T06:03:35;19.15;;;15.98;;
72974;SDS011;61166;54.228;37.632;2023-06-22T06:06:01;18.23;;;16.15;;
72974;SDS011;61166;54.228;37.632;2023-06-22T06:08:27;17.43;;;15.50;;
72974;SDS011;61166;54.228;37.632;2023-06-22T06:10:54;19.02;;;17.35;;
72974;SDS011;61166;54.228;37.632;2023-06-22T06:13:20;16.48;;;14.95;;
72974;SDS011;61166;54.228;37.632;2023-06-22T06:15:47;15.57;;;13.85;;
72974;SDS011;61166;54.228;37.632;2023-06-22T06:18:13;14.32;;;13.00;;
72974;SDS011;61166;54.228;37.632;2023-06-22T06:20:40;15.33;;;13.73;;
72974;SDS011;61166;54.228;37.632;2023-06-22T06:23:06;14.50;;;12.98;;
72974;SDS011;61166;54.228;37.632;2023-06-22T06:25:32;16.85;;;15.48;;
72974;SDS011;61166;54.228;37.632;2023-06-22T06:27:59;12.90;;;11.80;;
72974;SDS011;61166;54.228;37.632;2023-06-22T06:30:26;13.68;;;12.32;;
72974;SDS011;61166;54.228;37.632;2023-06-22T06:32:52;13.63;;;12.33;;
72974;SDS011;61166;54.228;37.632;2023-06-22T06:35:19;15.73;;;14.40;;
72974;SDS011;61166;54.228;37.632;2023-06-22T06:37:47;16.60;;;15.07;;
72974;SDS011;61166;54.228;37.632;2023-06-22T06:40:14;12.65;;;11.50;;
72974;SDS011;61166;54.228;37.632;2023-06-22T06:42:41;13.10;;;11.95;;
72974;SDS011;61166;54.228;37.632;2023-06-22T06:45:08;11.17;;;10.07;;
72974;SDS011;61166;54.228;37.632;2023-06-22T06:47:35;12.65;;;11.23;;
72974;SDS011;61166;54.228;37.632;2023-06-22T06:50:01;13.32;;;12.05;;
72974;SDS011;61166;54.228;37.632;2023-06-22T06:52:28;11.27;;;9.05;;
72974;SDS011;61166;54.228;37.632;2023-06-22T06:54:55;12.50;;;8.88;;
72974;SDS011;61166;54.228;37.632;2023-06-22T06:57:21;12.27;;;8.57;;
72974;SDS011;61166;54.228;37.632;2023-06-22T06:59:48;10.90;;;9.77;;
72974;SDS011;61166;54.228;37.632;2023-06-22T07:02:15;11.02;;;9.95;;
72974;SDS011;61166;54.228;37.632;2023-06-22T07:04:41;10.18;;;8.63;;
72974;SDS011;61166;54.228;37.632;2023-06-22T07:07:08;10.65;;;9.52;;
72974;SDS011;61166;54.228;37.632;2023-06-22T07:09:34;12.87;;;10.80;;
72974;SDS011;61166;54.228;37.632;2023-06-22T07:12:01;11.10;;;9.95;;
72974;SDS011;61166;54.228;37.632;2023-06-22T07:14:27;12.43;;;11.23;;
72974;SDS011;61166;54.228;37.632;2023-06-22T07:16:53;12.10;;;10.85;;
72974;SDS011;61166;54.228;37.632;2023-06-22T07:19:27;12.20;;;10.70;;
72974;SDS011;61166;54.228;37.632;2023-06-22T07:21:54;12.60;;;11.47;;
72974;SDS011;61166;54.228;37.632;2023-06-22T07:24:20;11.95;;;10.80;;
72974;SDS011;61166;54.228;37.632;2023-06-22T07:26:47;12.43;;;11.20;;
72974;SDS011;61166;54.228;37.632;2023-06-22T07:29:14;32.25;;;30.02;;
72974;SDS011;61166;54.228;37.632;2023-06-22T07:31:40;13.02;;;11.88;;
72974;SDS011;61166;54.228;37.632;2023-06-22T07:34:07;12.93;;;11.73;;
72974;SDS011;61166;54.228;37.632;2023-06-22T07:36:34;12.30;;;11.23;;
72974;SDS011;61166;54.228;37.632;2023-06-22T07:39:00;12.48;;;11.23;;
72974;SDS011;61166;54.228;37.632;2023-06-22T07:41:27;11.13;;;10.05;;
72974;SDS011;61166;54.228;37.632;2023-06-22T07:43:53;12.40;;;11.30;;
72974;SDS011;61166;54.228;37.632;2023-06-22T07:46:20;18.23;;;14.90;;
72974;SDS011;61166;54.228;37.632;2023-06-22T07:48:46;14.40;;;12.98;;
72974;SDS011;61166;54.228;37.632;2023-06-22T07:51:12;14.98;;;13.60;;
72974;SDS011;61166;54.228;37.632;2023-06-22T07:53:39;12.20;;;10.90;;
72974;SDS011;61166;54.228;37.632;2023-06-22T07:56:06;11.55;;;10.43;;
72974;SDS011;61166;54.228;37.632;2023-06-22T07:58:32;12.30;;;11.10;;
72974;SDS011;61166;54.228;37.632;2023-06-22T08:00:59;11.10;;;9.95;;
72974;SDS011;61166;54.228;37.632;2023-06-22T08:03:25;12.52;;;11.25;;
72974;SDS011;61166;54.228;37.632;2023-06-22T08:05:52;13.43;;;10.35;;
72974;SDS011;61166;54.228;37.632;2023-06-22T08:08:18;13.00;;;11.85;;
72974;SDS011;61166;54.228;37.632;2023-06-22T08:10:45;9.83;;;8.80;;
72974;SDS011;61166;54.228;37.632;2023-06-22T08:13:11;10.80;;;8.32;;
72974;SDS011;61166;54.228;37.632;2023-06-22T08:15:38;9.95;;;8.10;;
72974;SDS011;61166;54.228;37.632;2023-06-22T08:18:04;10.23;;;9.25;;
72974;SDS011;61166;54.228;37.632;2023-06-22T08:20:31;11.30;;;7.22;;
72974;SDS011;61166;54.228;37.632;2023-06-22T08:22:57;10.57;;;8.50;;
72974;SDS011;61166;54.228;37.632;2023-06-22T08:25:24;8.73;;;7.13;;
72974;SDS011;61166;54.228;37.632;2023-06-22T08:27:50;9.80;;;6.95;;
72974;SDS011;61166;54.228;37.632;2023-06-22T08:30:17;13.70;;;7.93;;
72974;SDS011;61166;54.228;37.632;2023-06-22T08:32:43;8.85;;;7.25;;
72974;SDS011;61166;54.228;37.632;2023-06-22T08:35:10;8.77;;;7.30;;
72974;SDS011;61166;54.228;37.632;2023-06-22T08:37:37;9.30;;;6.70;;
72974;SDS011;61166;54.228;37.632;2023-06-22T08:40:04;8.60;;;7.45;;
72974;SDS011;61166;54.228;37.632;2023-06-22T08:42:30;9.57;;;7.07;;
72974;SDS011;61166;54.228;37.632;2023-06-22T08:44:57;9.77;;;8.75;;
72974;SDS011;61166;54.228;37.632;2023-06-22T08:47:23;8.70;;;7.23;;
72974;SDS011;61166;54.228;37.632;2023-06-22T08:49:50;8.95;;;7.25;;
72974;SDS011;61166;54.228;37.632;2023-06-22T08:52:17;10.93;;;9.25;;
72974;SDS011;61166;54.228;37.632;2023-06-22T08:54:43;9.80;;;8.02;;
72974;SDS011;61166;54.228;37.632;2023-06-22T08:57:10;9.35;;;8.40;;
72974;SDS011;61166;54.228;37.632;2023-06-22T08:59:37;6.97;;;6.23;;
72974;SDS011;61166;54.228;37.632;2023-06-22T09:02:03;10.65;;;7.88;;
72974;SDS011;61166;54.228;37.632;2023-06-22T09:04:29;9.07;;;8.07;;
72974;SDS011;61166;54.228;37.632;2023-06-22T09:06:56;9.40;;;8.50;;
72974;SDS011;61166;54.228;37.632;2023-06-22T09:09:23;10.60;;;7.95;;
72974;SDS011;61166;54.228;37.632;2023-06-22T09:11:49;13.20;;;7.70;;
72974;SDS011;61166;54.228;37.632;2023-06-22T09:14:16;10.50;;;9.05;;
72974;SDS011;61166;54.228;37.632;2023-06-22T09:16:42;10.65;;;8.77;;
72974;SDS011;61166;54.228;37.632;2023-06-22T09:19:08;9.95;;;7.82;;
72974;SDS011;61166;54.228;37.632;2023-06-22T09:21:35;11.77;;;8.48;;
72974;SDS011;61166;54.228;37.632;2023-06-22T09:24:02;10.27;;;7.87;;
72974;SDS011;61166;54.228;37.632;2023-06-22T09:26:29;12.75;;;8.10;;
72974;SDS011;61166;54.228;37.632;2023-06-22T09:28:55;7.97;;;6.93;;
72974;SDS011;61166;54.228;37.632;2023-06-22T09:31:22;9.80;;;7.28;;
72974;SDS011;61166;54.228;37.632;2023-06-22T09:33:49;8.63;;;7.55;;
72974;SDS011;61166;54.228;37.632;2023-06-22T09:36:15;8.10;;;6.63;;
72974;SDS011;61166;54.228;37.632;2023-06-22T09:38:42;7.90;;;6.65;;
72974;SDS011;61166;54.228;37.632;2023-06-22T09:41:08;9.75;;;6.43;;
72974;SDS011;61166;54.228;37.632;2023-06-22T09:43:35;10.05;;;7.40;;
72974;SDS011;61166;54.228;37.632;2023-06-22T09:46:01;8.95;;;6.85;;
72974;SDS011;61166;54.228;37.632;2023-06-22T09:48:28;8.87;;;7.00;;
72974;SDS011;61166;54.228;37.632;2023-06-22T09:50:56;9.15;;;6.88;;
72974;SDS011;61166;54.228;37.632;2023-06-22T09:53:22;8.90;;;7.60;;
72974;SDS011;61166;54.228;37.632;2023-06-22T09:55:49;9.25;;;6.55;;
72974;SDS011;61166;54.228;37.632;2023-06-22T09:58:15;7.90;;;6.68;;
72974;SDS011;61166;54.228;37.632;2023-06-22T10:00:41;8.90;;;6.73;;
72974;SDS011;61166;54.228;37.632;2023-06-22T10:03:08;8.57;;;6.72;;
72974;SDS011;61166;54.228;37.632;2023-06-22T10:05:35;8.90;;;5.88;;
72974;SDS011;61166;54.228;37.632;2023-06-22T10:08:01;7.95;;;6.50;;
72974;SDS011;61166;54.228;37.632;2023-06-22T10:10:28;9.38;;;6.65;;
72974;SDS011;61166;54.228;37.632;2023-06-22T10:12:55;9.73;;;6.47;;
72974;SDS011;61166;54.228;37.632;2023-06-22T10:15:22;8.85;;;5.60;;
72974;SDS011;61166;54.228;37.632;2023-06-22T10:17:48;8.25;;;6.10;;
72974;SDS011;61166;54.228;37.632;2023-06-22T10:20:16;8.32;;;5.93;;
72974;SDS011;61166;54.228;37.632;2023-06-22T10:22:43;8.95;;;5.80;;
72974;SDS011;61166;54.228;37.632;2023-06-22T10:25:10;8.87;;;5.87;;
72974;SDS011;61166;54.228;37.632;2023-06-22T10:27:37;9.02;;;5.60;;
72974;SDS011;61166;54.228;37.632;2023-06-22T10:30:05;9.27;;;5.80;;
72974;SDS011;61166;54.228;37.632;2023-06-22T10:32:32;11.05;;;5.50;;
72974;SDS011;61166;54.228;37.632;2023-06-22T10:34:59;9.32;;;5.43;;
72974;SDS011;61166;54.228;37.632;2023-06-22T10:37:25;12.33;;;6.30;;
72974;SDS011;61166;54.228;37.632;2023-06-22T10:39:52;10.63;;;5.45;;
72974;SDS011;61166;54.228;37.632;2023-06-22T10:42:18;9.15;;;5.90;;
72974;SDS011;61166;54.228;37.632;2023-06-22T10:44:44;8.73;;;5.70;;
72974;SDS011;61166;54.228;37.632;2023-06-22T10:47:11;9.80;;;5.10;;
72974;SDS011;61166;54.228;37.632;2023-06-22T10:49:38;9.20;;;5.67;;
72974;SDS011;61166;54.228;37.632;2023-06-22T10:52:07;7.55;;;4.97;;
72974;SDS011;61166;54.228;37.632;2023-06-22T10:54:34;11.75;;;5.35;;
72974;SDS011;61166;54.228;37.632;2023-06-22T10:57:01;13.15;;;10.65;;
72974;SDS011;61166;54.228;37.632;2023-06-22T10:59:28;6.72;;;4.57;;
72974;SDS011;61166;54.228;37.632;2023-06-22T11:01:55;6.37;;;3.87;;
72974;SDS011;61166;54.228;37.632;2023-06-22T11:04:21;4.95;;;3.85;;
72974;SDS011;61166;54.228;37.632;2023-06-22T11:06:48;5.63;;;4.15;;
72974;SDS011;61166;54.228;37.632;2023-06-22T11:09:15;5.80;;;4.22;;
72974;SDS011;61166;54.228;37.632;2023-06-22T11:11:52;5.60;;;4.30;;
72974;SDS011;61166;54.228;37.632;2023-06-22T11:14:19;7.57;;;4.77;;
72974;SDS011;61166;54.228;37.632;2023-06-22T11:16:48;9.80;;;4.75;;
72974;SDS011;61166;54.228;37.632;2023-06-22T11:19:14;6.60;;;4.13;;
72974;SDS011;61166;54.228;37.632;2023-06-22T11:21:40;7.97;;;4.53;;
72974;SDS011;61166;54.228;37.632;2023-06-22T11:24:07;7.35;;;4.70;;
72974;SDS011;61166;54.228;37.632;2023-06-22T11:26:33;5.43;;;4.70;;
72974;SDS011;61166;54.228;37.632;2023-06-22T11:29:00;6.30;;;4.55;;
72974;SDS011;61166;54.228;37.632;2023-06-22T11:31:27;7.60;;;4.13;;
72974;SDS011;61166;54.228;37.632;2023-06-22T11:33:53;5.70;;;3.80;;
72974;SDS011;61166;54.228;37.632;2023-06-22T11:36:20;6.53;;;4.25;;
72974;SDS011;61166;54.228;37.632;2023-06-22T11:38:46;5.47;;;4.20;;
72974;SDS011;61166;54.228;37.632;2023-06-22T11:41:13;6.75;;;4.00;;
72974;SDS011;61166;54.228;37.632;2023-06-22T11:43:39;7.75;;;4.22;;
72974;SDS011;61166;54.228;37.632;2023-06-22T11:46:06;13.07;;;5.25;;
72974;SDS011;61166;54.228;37.632;2023-06-22T11:48:32;8.98;;;5.63;;
72974;SDS011;61166;54.228;37.632;2023-06-22T11:50:58;16.53;;;7.83;;
72974;SDS011;61166;54.228;37.632;2023-06-22T11:53:26;15.00;;;8.48;;
72974;SDS011;61166;54.228;37.632;2023-06-22T11:55:52;12.68;;;7.03;;
72974;SDS011;61166;54.228;37.632;2023-06-22T11:58:19;10.27;;;6.40;;
72974;SDS011;61166;54.228;37.632;2023-06-22T12:00:47;10.77;;;5.80;;
72974;SDS011;61166;54.228;37.632;2023-06-22T12:03:17;10.27;;;5.80;;
72974;SDS011;61166;54.228;37.632;2023-06-22T12:05:44;14.07;;;6.43;;
72974;SDS011;61166;54.228;37.632;2023-06-22T12:08:11;71.95;;;37.60;;
72974;SDS011;61166;54.228;37.632;2023-06-22T12:10:37;22.17;;;12.05;;
72974;SDS011;61166;54.228;37.632;2023-06-22T12:13:04;16.17;;;8.75;;
72974;SDS011;61166;54.228;37.632;2023-06-22T12:15:30;19.13;;;9.13;;
72974;SDS011;61166;54.228;37.632;2023-06-22T12:17:57;23.42;;;17.08;;
72974;SDS011;61166;54.228;37.632;2023-06-22T12:20:23;13.18;;;7.03;;
72974;SDS011;61166;54.228;37.632;2023-06-22T12:22:51;17.33;;;8.88;;
72974;SDS011;61166;54.228;37.632;2023-06-22T12:25:18;13.40;;;7.55;;
72974;SDS011;61166;54.228;37.632;2023-06-22T12:27:44;13.37;;;7.17;;
72974;SDS011;61166;54.228;37.632;2023-06-22T12:30:11;12.07;;;6.35;;
72974;SDS011;61166;54.228;37.632;2023-06-22T12:32:37;11.05;;;6.22;;
72974;SDS011;61166;54.228;37.632;2023-06-22T12:35:04;13.93;;;6.85;;
72974;SDS011;61166;54.228;37.632;2023-06-22T12:37:30;10.48;;;6.43;;
72974;SDS011;61166;54.228;37.632;2023-06-22T12:39:57;13.07;;;6.63;;
72974;SDS011;61166;54.228;37.632;2023-06-22T12:42:23;11.27;;;6.40;;
72974;SDS011;61166;54.228;37.632;2023-06-22T12:44:50;11.60;;;6.28;;
72974;SDS011;61166;54.228;37.632;2023-06-22T12:47:18;9.68;;;5.60;;
72974;SDS011;61166;54.228;37.632;2023-06-22T12:49:45;12.77;;;5.30;;
72974;SDS011;61166;54.228;37.632;2023-06-22T12:52:12;9.43;;;5.57;;
72974;SDS011;61166;54.228;37.632;2023-06-22T12:54:38;7.85;;;4.53;;
72974;SDS011;61166;54.228;37.632;2023-06-22T12:57:19;11.10;;;4.55;;
72974;SDS011;61166;54.228;37.632;2023-06-22T12:59:45;9.23;;;5.20;;
72974;SDS011;61166;54.228;37.632;2023-06-22T13:02:12;8.20;;;5.13;;
72974;SDS011;61166;54.228;37.632;2023-06-22T13:04:38;11.37;;;5.97;;
72974;SDS011;61166;54.228;37.632;2023-06-22T13:07:05;13.32;;;5.53;;
72974;SDS011;61166;54.228;37.632;2023-06-22T13:09:46;11.90;;;6.78;;
72974;SDS011;61166;54.228;37.632;2023-06-22T13:12:12;9.30;;;5.15;;
72974;SDS011;61166;54.228;37.632;2023-06-22T13:14:39;8.32;;;5.13;;
72974;SDS011;61166;54.228;37.632;2023-06-22T13:17:05;10.07;;;5.90;;
72974;SDS011;61166;54.228;37.632;2023-06-22T13:19:31;7.78;;;5.30;;
72974;SDS011;61166;54.228;37.632;2023-06-22T13:21:58;8.00;;;4.65;;
72974;SDS011;61166;54.228;37.632;2023-06-22T13:24:25;8.32;;;5.13;;
72974;SDS011;61166;54.228;37.632;2023-06-22T13:26:51;8.40;;;5.40;;
72974;SDS011;61166;54.228;37.632;2023-06-22T13:29:18;10.47;;;6.03;;
72974;SDS011;61166;54.228;37.632;2023-06-22T13:31:45;10.85;;;5.63;;
72974;SDS011;61166;54.228;37.632;2023-06-22T13:34:11;8.68;;;5.38;;
72974;SDS011;61166;54.228;37.632;2023-06-22T13:36:37;35.42;;;18.95;;
72974;SDS011;61166;54.228;37.632;2023-06-22T13:39:04;27.02;;;17.52;;
72974;SDS011;61166;54.228;37.632;2023-06-22T13:41:31;21.60;;;10.93;;
72974;SDS011;61166;54.228;37.632;2023-06-22T13:43:57;19.13;;;10.27;;
72974;SDS011;61166;54.228;37.632;2023-06-22T13:46:24;18.13;;;9.18;;
72974;SDS011;61166;54.228;37.632;2023-06-22T13:48:50;16.00;;;9.30;;
72974;SDS011;61166;54.228;37.632;2023-06-22T13:51:20;77.43;;;40.10;;
72974;SDS011;61166;54.228;37.632;2023-06-22T13:53:46;15.67;;;8.73;;
72974;SDS011;61166;54.228;37.632;2023-06-22T13:56:13;18.33;;;9.85;;
72974;SDS011;61166;54.228;37.632;2023-06-22T13:58:39;16.20;;;9.05;;
72974;SDS011;61166;54.228;37.632;2023-06-22T14:01:06;17.83;;;9.68;;
72974;SDS011;61166;54.228;37.632;2023-06-22T14:03:36;15.05;;;7.72;;
72974;SDS011;61166;54.228;37.632;2023-06-22T14:06:03;14.00;;;7.80;;
72974;SDS011;61166;54.228;37.632;2023-06-22T14:08:29;20.00;;;9.45;;
72974;SDS011;61166;54.228;37.632;2023-06-22T14:10:58;20.80;;;9.48;;
72974;SDS011;61166;54.228;37.632;2023-06-22T14:13:25;27.88;;;14.30;;
72974;SDS011;61166;54.228;37.632;2023-06-22T14:15:51;32.22;;;16.00;;
72974;SDS011;61166;54.228;37.632;2023-06-22T14:18:18;17.03;;;6.80;;
72974;SDS011;61166;54.228;37.632;2023-06-22T14:20:44;13.55;;;7.05;;
72974;SDS011;61166;54.228;37.632;2023-06-22T14:23:10;11.82;;;6.88;;